Maxbass, North Dakota
Current Conditions -  °F | °C
As of 9:58 PM on Thursday 18 Dec 2014 (Local Time) from KMIB Reporting Station
Overcast Overcast  
Wind Chill: 17°   Ceiling: 600
Heat Index: 23°   Visibility: 9mi
Dew Point: 23°   Wind: 5mph
Humidity: 100%   Direction: 110°ESE
Pressure: 29.96"   Gusts: NA
Location:  48.72°N, 101.14°W
Report Text: KMIB 190358Z AUTO 11004KT 9SM R11/5500FT OVC006 M05/M05 A2996 RMK AO2 SLPNO $
Loading
Personal Weather Stations






























Interactive Weather Map New forecast layout! Learn more

10-Day Weather Forecast

Advertisements
Track Severe Weather on mobile